Accueil
METAR-TAF:

METAR-TAF

Aéroports :

Bigfork Municipal Airport

Bigfork, Minnesota, États-Unis

latitude: 47-46-58N, longitude: 093-39-01W, altitude: 411 m

Observation

Le bulletin a été fait il y a 37 minutes, à 15:19 UTC
Vent calme
Température 25°C
Humidité 39%
Pression 1013 hPa
Visibilité: 16.1 km
Ciel clair

METAR: KFOZ 021519Z AUTO 00000KT 10SM CLR 25/10 A2990 RMK AO1

Heure: 10:56 (15:56 UTC)


TAF: absent

Observations et prévisions météorologiques de plus de 4000 aéroports (messages METAR et TAF).

Les stations disponibles sont représentées par des disques jaunes et rouges sur la carte.

Passer la souris dessus pour voir le nom de la station.

Cliquer dessus pour voir les observations et prévisions météorologiques.

Pour changer de carte: cliquez sur les boutons verts avec une croix noire pour zoomer, sur le bouton vert avec un tiret pour effectuer un zoom arrière, ou sur les flèches vertes pour les cartes adjacentes.


METAR-TAF: